Flight Track Log - Related Links

Times and Time Zones

All times are in EDT time to prevent confusion due to time zone crossing. See the IRO8578 flight status page for this flight to view local times or setup timezone preferences in your user account.


Time Position Orientation Groundspeed Altitude Reporting Facility
EDT Latitude Longitude Course Direction KTS MPH feet Rate Location/Type
Fri 07:50:33 AM 42.9500 -87.8833 360° North 86 99 1,200  Level Milwaukee TRACON
Fri 07:51:09 AM 42.9667 -87.8833 360° North 85 98 1,600 688 Climbing Milwaukee TRACON
Fri 07:52:09 AM 43.0000 -87.8833 360° North 92 106 2,300 626 Climbing Milwaukee TRACON
Fri 07:53:04 AM 43.0167 -87.8667 36° Northeast 103 119 2,800 514 Climbing Milwaukee TRACON
Fri 07:53:19 AM 43.0181 -87.8711 293° West 96 110 2,900 553 Climbing Chicago Center
Fri 07:54:20 AM 43.0564 -87.8644 North 110 127 3,500 541 Climbing Chicago Center
Fri 07:55:21 AM 43.0933 -87.8586 North 122 140 4,000 488 Climbing Chicago Center
Fri 07:56:23 AM 43.1303 -87.8544 North 130 150 4,500 488 Climbing Chicago Center
Fri 07:57:24 AM 43.1656 -87.8489 North 129 148 5,000 488 Climbing Chicago Center
Fri 07:58:26 AM 43.2011 -87.8444 North 128 147 5,500 488 Climbing Chicago Center
Fri 07:59:27 AM 43.2364 -87.8392 North 128 147 6,000 439 Climbing Chicago Center
Fri 08:00:29 AM 43.2733 -87.8344 North 131 151 6,400 439 Climbing Chicago Center
Fri 08:01:30 AM 43.3169 -87.8286 North 134 154 6,900 293 Climbing Chicago Center
Fri 08:02:32 AM 43.3564 -87.8236 North 141 162 7,000 49 Climbing Chicago Center
Fri 08:03:33 AM 43.4031 -87.8150 North 164 189 7,000  Level Chicago Center
Fri 08:04:35 AM 43.4533 -87.8075 North 178 205 7,000  Level Chicago Center
Fri 08:05:36 AM 43.5047 -87.7994 North 184 212 7,000  Level Chicago Center
Fri 08:06:38 AM 43.5556 -87.7933 North 184 212 7,000  Level Chicago Center
Fri 08:07:39 AM 43.6050 -87.7869 North 179 206 7,000  Level Chicago Center
Fri 08:08:26 AM 43.6461 -87.7814 North 180 207 7,000  Level Minneapolis Center
Fri 08:09:27 AM 43.6950 -87.7742 North 178 205 7,000  Level Minneapolis Center
Fri 08:10:28 AM 43.7442 -87.7672 North 178 205 7,000  Level Minneapolis Center
Fri 08:11:29 AM 43.7942 -87.7617 North 179 206 7,000  Level Minneapolis Center
Fri 08:12:30 AM 43.8531 -87.7531 North 182 209 7,000  Level Minneapolis Center
Fri 08:13:31 AM 43.9039 -87.7458 North 182 209 7,000  Level Minneapolis Center
Fri 08:14:32 AM 43.9547 -87.7383 North 183 211 7,000  Level Minneapolis Center
Fri 08:15:33 AM 44.0047 -87.7319 North 181 208 7,000  Level Minneapolis Center
Fri 08:16:35 AM 44.0553 -87.7247 North 180 207 7,000  Level Minneapolis Center
Fri 08:17:36 AM 44.1058 -87.7181 North 181 208 7,000  Level Minneapolis Center
Fri 08:18:37 AM 44.1564 -87.7117 North 180 207 7,000  Level Minneapolis Center
Fri 08:19:38 AM 44.2047 -87.7039 North 176 203 7,000  Level Minneapolis Center
Fri 08:20:40 AM 44.2556 -87.6981 North 180 207 7,000  Level Minneapolis Center
Fri 08:21:41 AM 44.3056 -87.6906 North 180 207 7,000  Level Minneapolis Center
Fri 08:22:42 AM 44.3636 -87.6836 North 180 207 7,000  Level Minneapolis Center
Fri 08:23:43 AM 44.4128 -87.6750 North 179 206 7,000  Level Minneapolis Center
Fri 08:24:45 AM 44.4631 -87.6692 North 180 207 7,000  Level Minneapolis Center
Fri 08:25:46 AM 44.5119 -87.6619 North 179 206 7,000  Level Minneapolis Center
Fri 08:26:47 AM 44.5622 -87.6567 North 180 207 7,000  Level Minneapolis Center
Fri 08:27:48 AM 44.6131 -87.6497 North 181 208 7,000  Level Minneapolis Center
Fri 08:28:50 AM 44.6625 -87.6431 North 180 207 7,000  Level Minneapolis Center
Fri 08:29:51 AM 44.7119 -87.6364 North 179 206 7,000  Level Minneapolis Center
Fri 08:30:52 AM 44.7619 -87.6283 North 179 206 7,000  Level Minneapolis Center
Fri 08:31:53 AM 44.8111 -87.6219 North 179 206 7,000  Level Minneapolis Center
Fri 08:32:55 AM 44.8703 -87.6133 North 178 205 7,000  Level Minneapolis Center
Fri 08:33:56 AM 44.9197 -87.6061 North 177 204 7,000  Level Minneapolis Center
Fri 08:34:57 AM 44.9694 -87.5997 North 179 206 7,000  Level Minneapolis Center
Fri 08:35:58 AM 45.0189 -87.5919 North 179 206 7,000  Level Minneapolis Center
Fri 08:37:00 AM 45.0689 -87.5850 North 180 207 7,000  Level Minneapolis Center
Fri 08:38:01 AM 45.1192 -87.5772 North 182 209 7,000  Level Minneapolis Center
Fri 08:39:02 AM 45.1697 -87.5706 North 182 209 7,000  Level Minneapolis Center
Fri 08:40:03 AM 45.2203 -87.5639 North 182 209 7,000 49 Level Minneapolis Center
Fri 08:41:05 AM 45.2706 -87.5742 352° North 183 211 7,100 49 Climbing Minneapolis Center
Fri 08:42:06 AM 45.3206 -87.5864 350° North 182 209 7,100  Level Minneapolis Center
Fri 08:43:07 AM 45.3831 -87.5986 352° North 186 214 7,100  Level Minneapolis Center
Fri 08:44:08 AM 45.4361 -87.6025 357° North 189 217 7,100 -49 Level Minneapolis Center
Fri 08:45:10 AM 45.4869 -87.5906 North 185 213 7,000  Descending Minneapolis Center
Fri 08:46:11 AM 45.5436 -87.5775 North 194 223 7,100 49 Climbing Minneapolis Center
Fri 08:47:12 AM 45.5969 -87.5650 North 191 220 7,100  Level Minneapolis Center
Fri 08:48:13 AM 45.6506 -87.5544 North 191 220 7,100  Level Minneapolis Center
Fri 08:49:15 AM 45.7017 -87.5425 North 182 209 7,100  Level Minneapolis Center
Fri 08:50:16 AM 45.7556 -87.5314 North 191 220 7,100  Level Minneapolis Center
Fri 08:51:17 AM 45.8089 -87.5186 North 191 220 7,100  Level Minneapolis Center
Fri 08:52:18 AM 45.8622 -87.5053 10° North 191 220 7,100  Level Minneapolis Center
Fri 08:53:20 AM 45.9161 -87.4944 North 192 221 7,100  Level Minneapolis Center
Fri 08:54:21 AM 45.9678 -87.4825 North 184 212 7,100  Level Minneapolis Center
Fri 08:55:22 AM 46.0208 -87.4714 North 189 217 7,100 -49 Level Minneapolis Center
Fri 08:56:23 AM 46.0597 -87.4622 North 182 209 7,000 -885 Descending Minneapolis Center
Fri 08:57:24 AM 46.1297 -87.4456 North 206 237 5,300 -1,366 Descending Minneapolis Center
Fri 08:58:26 AM 46.1839 -87.4333 North 194 223 4,200 -829 Descending Minneapolis Center
Fri 08:59:27 AM 46.2225 -87.4253 North 181 208 3,600 -885 Descending Minneapolis Center
Fri 09:00:28 AM 46.2769 -87.4122 North 158 182 2,400 -885 Descending Minneapolis Center
Fri 09:01:29 AM 46.3103 -87.4053 North 125 144 1,800 -585 Descending Minneapolis Center
Fri 09:02:31 AM 46.3442 -87.3975 North 120 138 1,200 -581 Descending Minneapolis Center

Login

Don't have an account? Register now (free) for customized features, flight alerts, and more!